Terminal Aerodrome Forecast
Issued by NWS

Home | Current Version | Previous Version | Text Only | Print | Product List | Glossary On
Versions: 1 2 3 4 5 6 7 8 9 10 11 12 13 14 15 16 17
669
FTPA31 PHFO 220103 AAA
TAFSTU
TAF AMD
NSTU 220103Z 2201/2224 33017G27KT P6SM VCSH SCT018 BKN040 OVC090
      TEMPO 2201/2205 33020G40KT 2SM +SHRA BKN015
     FM220700 33015G25KT P6SM VCSH SCT015 BKN035 OVC090=

USA.gov is the U.S. government's official web portal to all federal, state and local government web resources and services.